sensor_id;sensor_type;location;lat;lon;timestamp;P1;durP1;ratioP1;P2;durP2;ratioP2
6209;SDS011;3138;52.550;13.148;2022-09-12T00:01:05;8.63;;;4.20;;
6209;SDS011;3138;52.550;13.148;2022-09-12T00:03:34;4.33;;;3.90;;
6209;SDS011;3138;52.550;13.148;2022-09-12T00:06:08;12.23;;;4.17;;
6209;SDS011;3138;52.550;13.148;2022-09-12T00:08:36;4.37;;;3.97;;
6209;SDS011;3138;52.550;13.148;2022-09-12T00:11:04;5.60;;;4.00;;
6209;SDS011;3138;52.550;13.148;2022-09-12T00:13:31;11.03;;;4.00;;
6209;SDS011;3138;52.550;13.148;2022-09-12T00:15:58;4.20;;;3.90;;
6209;SDS011;3138;52.550;13.148;2022-09-12T00:18:27;4.10;;;3.87;;
6209;SDS011;3138;52.550;13.148;2022-09-12T00:20:55;5.00;;;3.60;;
6209;SDS011;3138;52.550;13.148;2022-09-12T00:23:22;3.60;;;3.40;;
6209;SDS011;3138;52.550;13.148;2022-09-12T00:25:48;4.40;;;3.97;;
6209;SDS011;3138;52.550;13.148;2022-09-12T00:28:15;5.60;;;3.90;;
6209;SDS011;3138;52.550;13.148;2022-09-12T00:30:43;4.17;;;3.90;;
6209;SDS011;3138;52.550;13.148;2022-09-12T00:33:11;5.50;;;4.70;;
6209;SDS011;3138;52.550;13.148;2022-09-12T00:35:40;5.27;;;4.30;;
6209;SDS011;3138;52.550;13.148;2022-09-12T00:38:09;4.63;;;4.23;;
6209;SDS011;3138;52.550;13.148;2022-09-12T00:40:36;4.17;;;3.87;;
6209;SDS011;3138;52.550;13.148;2022-09-12T00:43:03;5.80;;;3.90;;
6209;SDS011;3138;52.550;13.148;2022-09-12T00:45:30;4.40;;;4.07;;
6209;SDS011;3138;52.550;13.148;2022-09-12T00:47:59;3.43;;;3.13;;
6209;SDS011;3138;52.550;13.148;2022-09-12T00:50:28;6.30;;;4.67;;
6209;SDS011;3138;52.550;13.148;2022-09-12T00:52:57;8.40;;;4.90;;
6209;SDS011;3138;52.550;13.148;2022-09-12T00:55:29;13.53;;;4.23;;
6209;SDS011;3138;52.550;13.148;2022-09-12T00:57:59;13.47;;;4.67;;
6209;SDS011;3138;52.550;13.148;2022-09-12T01:00:29;4.73;;;4.30;;
6209;SDS011;3138;52.550;13.148;2022-09-12T01:02:57;6.10;;;4.90;;
6209;SDS011;3138;52.550;13.148;2022-09-12T01:05:26;4.90;;;4.60;;
6209;SDS011;3138;52.550;13.148;2022-09-12T01:07:54;7.50;;;3.90;;
6209;SDS011;3138;52.550;13.148;2022-09-12T01:10:22;5.63;;;5.00;;
6209;SDS011;3138;52.550;13.148;2022-09-12T01:12:50;4.80;;;4.40;;
6209;SDS011;3138;52.550;13.148;2022-09-12T01:15:25;6.70;;;6.00;;
6209;SDS011;3138;52.550;13.148;2022-09-12T01:17:57;13.57;;;5.23;;
6209;SDS011;3138;52.550;13.148;2022-09-12T01:26:43;7.10;;;4.10;;
6209;SDS011;3138;52.550;13.148;2022-09-12T01:29:37;5.37;;;4.90;;
6209;SDS011;3138;52.550;13.148;2022-09-12T01:32:24;4.60;;;4.20;;
6209;SDS011;3138;52.550;13.148;2022-09-12T01:35:03;5.43;;;4.80;;
6209;SDS011;3138;52.550;13.148;2022-09-12T01:37:41;11.03;;;5.00;;
6209;SDS011;3138;52.550;13.148;2022-09-12T01:40:16;4.20;;;3.90;;
6209;SDS011;3138;52.550;13.148;2022-09-12T01:42:50;4.50;;;4.10;;
6209;SDS011;3138;52.550;13.148;2022-09-12T01:45:23;4.73;;;4.33;;
6209;SDS011;3138;52.550;13.148;2022-09-12T01:47:56;4.97;;;3.87;;
6209;SDS011;3138;52.550;13.148;2022-09-12T01:50:29;4.40;;;4.10;;
6209;SDS011;3138;52.550;13.148;2022-09-12T01:52:59;5.13;;;4.50;;
6209;SDS011;3138;52.550;13.148;2022-09-12T01:55:30;4.40;;;4.00;;
6209;SDS011;3138;52.550;13.148;2022-09-12T01:58:02;8.57;;;4.23;;
6209;SDS011;3138;52.550;13.148;2022-09-12T02:00:41;31.07;;;4.40;;
6209;SDS011;3138;52.550;13.148;2022-09-12T02:03:16;4.90;;;4.43;;
6209;SDS011;3138;52.550;13.148;2022-09-12T02:05:50;6.50;;;3.70;;
6209;SDS011;3138;52.550;13.148;2022-09-12T02:08:27;10.47;;;4.60;;
6209;SDS011;3138;52.550;13.148;2022-09-12T02:11:00;10.00;;;3.73;;
6209;SDS011;3138;52.550;13.148;2022-09-12T02:13:32;5.27;;;4.00;;
6209;SDS011;3138;52.550;13.148;2022-09-12T02:16:03;13.50;;;4.37;;
6209;SDS011;3138;52.550;13.148;2022-09-12T02:18:35;5.40;;;4.50;;
6209;SDS011;3138;52.550;13.148;2022-09-12T02:21:04;4.70;;;4.10;;
6209;SDS011;3138;52.550;13.148;2022-09-12T02:23:32;4.17;;;3.83;;
6209;SDS011;3138;52.550;13.148;2022-09-12T02:26:04;4.17;;;3.77;;
6209;SDS011;3138;52.550;13.148;2022-09-12T02:28:37;7.23;;;4.27;;
6209;SDS011;3138;52.550;13.148;2022-09-12T02:31:12;4.13;;;3.53;;
6209;SDS011;3138;52.550;13.148;2022-09-12T02:33:47;6.83;;;3.90;;
6209;SDS011;3138;52.550;13.148;2022-09-12T02:36:24;5.37;;;4.60;;
6209;SDS011;3138;52.550;13.148;2022-09-12T02:38:59;3.20;;;2.97;;
6209;SDS011;3138;52.550;13.148;2022-09-12T02:41:26;4.67;;;4.27;;
6209;SDS011;3138;52.550;13.148;2022-09-12T02:43:54;5.50;;;4.00;;
6209;SDS011;3138;52.550;13.148;2022-09-12T02:46:22;7.57;;;4.93;;
6209;SDS011;3138;52.550;13.148;2022-09-12T02:48:53;4.87;;;4.00;;
6209;SDS011;3138;52.550;13.148;2022-09-12T02:51:21;5.43;;;4.83;;
6209;SDS011;3138;52.550;13.148;2022-09-12T02:53:48;3.73;;;3.53;;
6209;SDS011;3138;52.550;13.148;2022-09-12T02:56:16;4.70;;;4.30;;
6209;SDS011;3138;52.550;13.148;2022-09-12T02:58:47;6.70;;;3.80;;
6209;SDS011;3138;52.550;13.148;2022-09-12T03:01:29;4.10;;;3.80;;
6209;SDS011;3138;52.550;13.148;2022-09-12T03:04:16;9.60;;;3.70;;
6209;SDS011;3138;52.550;13.148;2022-09-12T03:07:02;6.40;;;4.83;;
6209;SDS011;3138;52.550;13.148;2022-09-12T03:09:39;6.13;;;5.13;;
6209;SDS011;3138;52.550;13.148;2022-09-12T03:12:16;5.03;;;4.30;;
6209;SDS011;3138;52.550;13.148;2022-09-12T03:14:58;4.73;;;4.40;;
6209;SDS011;3138;52.550;13.148;2022-09-12T03:17:36;5.03;;;4.70;;
6209;SDS011;3138;52.550;13.148;2022-09-12T03:20:12;5.33;;;4.83;;
6209;SDS011;3138;52.550;13.148;2022-09-12T03:22:44;7.30;;;5.03;;
6209;SDS011;3138;52.550;13.148;2022-09-12T03:25:17;5.80;;;4.63;;
6209;SDS011;3138;52.550;13.148;2022-09-12T03:27:50;4.40;;;3.90;;
6209;SDS011;3138;52.550;13.148;2022-09-12T03:30:21;5.27;;;4.87;;
6209;SDS011;3138;52.550;13.148;2022-09-12T03:32:48;5.37;;;4.97;;
6209;SDS011;3138;52.550;13.148;2022-09-12T03:35:21;4.23;;;3.83;;
6209;SDS011;3138;52.550;13.148;2022-09-12T03:37:50;3.20;;;3.00;;
6209;SDS011;3138;52.550;13.148;2022-09-12T03:40:17;5.37;;;4.87;;
6209;SDS011;3138;52.550;13.148;2022-09-12T03:42:44;5.70;;;4.10;;
6209;SDS011;3138;52.550;13.148;2022-09-12T03:45:11;5.10;;;3.90;;
6209;SDS011;3138;52.550;13.148;2022-09-12T03:47:38;6.83;;;4.27;;
6209;SDS011;3138;52.550;13.148;2022-09-12T03:50:05;5.00;;;4.50;;
6209;SDS011;3138;52.550;13.148;2022-09-12T03:52:34;6.53;;;4.87;;
6209;SDS011;3138;52.550;13.148;2022-09-12T03:55:00;5.20;;;4.80;;
6209;SDS011;3138;52.550;13.148;2022-09-12T03:57:27;5.53;;;5.13;;
6209;SDS011;3138;52.550;13.148;2022-09-12T03:59:54;4.93;;;4.53;;
6209;SDS011;3138;52.550;13.148;2022-09-12T04:02:20;15.80;;;6.10;;
6209;SDS011;3138;52.550;13.148;2022-09-12T04:04:47;18.50;;;4.90;;
6209;SDS011;3138;52.550;13.148;2022-09-12T04:07:14;6.43;;;4.60;;
6209;SDS011;3138;52.550;13.148;2022-09-12T04:09:43;7.40;;;4.77;;
6209;SDS011;3138;52.550;13.148;2022-09-12T04:12:09;8.20;;;5.40;;
6209;SDS011;3138;52.550;13.148;2022-09-12T04:14:36;13.77;;;6.30;;
6209;SDS011;3138;52.550;13.148;2022-09-12T04:17:05;9.47;;;6.60;;
6209;SDS011;3138;52.550;13.148;2022-09-12T04:19:31;110.30;;;9.97;;
6209;SDS011;3138;52.550;13.148;2022-09-12T04:21:58;64.93;;;8.70;;
6209;SDS011;3138;52.550;13.148;2022-09-12T04:24:25;70.80;;;9.53;;
6209;SDS011;3138;52.550;13.148;2022-09-12T04:26:53;132.27;;;10.63;;
6209;SDS011;3138;52.550;13.148;2022-09-12T04:29:20;133.40;;;13.27;;
6209;SDS011;3138;52.550;13.148;2022-09-12T04:31:47;49.70;;;8.13;;
6209;SDS011;3138;52.550;13.148;2022-09-12T04:34:14;360.67;;;19.57;;
6209;SDS011;3138;52.550;13.148;2022-09-12T04:36:40;200.50;;;16.23;;
6209;SDS011;3138;52.550;13.148;2022-09-12T04:39:07;111.73;;;11.37;;
6209;SDS011;3138;52.550;13.148;2022-09-12T04:41:36;28.63;;;8.93;;
6209;SDS011;3138;52.550;13.148;2022-09-12T04:44:05;11.77;;;8.13;;
6209;SDS011;3138;52.550;13.148;2022-09-12T04:46:34;9.03;;;7.77;;
6209;SDS011;3138;52.550;13.148;2022-09-12T04:49:02;18.30;;;8.13;;
6209;SDS011;3138;52.550;13.148;2022-09-12T04:51:30;7.80;;;6.90;;
6209;SDS011;3138;52.550;13.148;2022-09-12T04:53:59;14.40;;;7.47;;
6209;SDS011;3138;52.550;13.148;2022-09-12T04:56:28;8.23;;;7.47;;
6209;SDS011;3138;52.550;13.148;2022-09-12T04:58:55;18.10;;;7.27;;
6209;SDS011;3138;52.550;13.148;2022-09-12T05:01:24;8.97;;;8.03;;
6209;SDS011;3138;52.550;13.148;2022-09-12T05:03:52;12.00;;;7.50;;
6209;SDS011;3138;52.550;13.148;2022-09-12T05:06:20;11.17;;;9.53;;
6209;SDS011;3138;52.550;13.148;2022-09-12T05:08:48;13.73;;;10.33;;
6209;SDS011;3138;52.550;13.148;2022-09-12T05:11:16;8.57;;;7.50;;
6209;SDS011;3138;52.550;13.148;2022-09-12T05:13:45;16.10;;;8.43;;
6209;SDS011;3138;52.550;13.148;2022-09-12T05:16:14;11.13;;;9.03;;
6209;SDS011;3138;52.550;13.148;2022-09-12T05:18:43;15.30;;;8.47;;
6209;SDS011;3138;52.550;13.148;2022-09-12T05:21:11;17.33;;;9.33;;
6209;SDS011;3138;52.550;13.148;2022-09-12T05:23:39;12.23;;;8.70;;
6209;SDS011;3138;52.550;13.148;2022-09-12T05:26:06;23.97;;;10.40;;
6209;SDS011;3138;52.550;13.148;2022-09-12T05:28:37;9.87;;;8.77;;
6209;SDS011;3138;52.550;13.148;2022-09-12T05:31:05;12.13;;;7.40;;
6209;SDS011;3138;52.550;13.148;2022-09-12T05:33:33;13.97;;;9.00;;
6209;SDS011;3138;52.550;13.148;2022-09-12T05:36:04;13.37;;;9.00;;
6209;SDS011;3138;52.550;13.148;2022-09-12T05:38:33;12.00;;;9.70;;
6209;SDS011;3138;52.550;13.148;2022-09-12T05:41:03;11.07;;;7.70;;
6209;SDS011;3138;52.550;13.148;2022-09-12T05:43:32;38.80;;;9.73;;
6209;SDS011;3138;52.550;13.148;2022-09-12T05:45:59;21.97;;;9.63;;
6209;SDS011;3138;52.550;13.148;2022-09-12T05:48:27;12.50;;;9.70;;
6209;SDS011;3138;52.550;13.148;2022-09-12T05:50:57;11.70;;;9.30;;
6209;SDS011;3138;52.550;13.148;2022-09-12T05:53:27;13.07;;;9.03;;
6209;SDS011;3138;52.550;13.148;2022-09-12T05:56:02;11.03;;;8.87;;
6209;SDS011;3138;52.550;13.148;2022-09-12T05:58:30;11.97;;;10.43;;
6209;SDS011;3138;52.550;13.148;2022-09-12T06:01:00;14.40;;;10.30;;
6209;SDS011;3138;52.550;13.148;2022-09-12T06:03:27;14.70;;;12.03;;
6209;SDS011;3138;52.550;13.148;2022-09-12T06:05:54;18.70;;;11.40;;
6209;SDS011;3138;52.550;13.148;2022-09-12T06:08:20;13.93;;;11.60;;
6209;SDS011;3138;52.550;13.148;2022-09-12T06:10:48;16.00;;;11.00;;
6209;SDS011;3138;52.550;13.148;2022-09-12T06:13:15;22.60;;;10.40;;
6209;SDS011;3138;52.550;13.148;2022-09-12T06:15:42;13.30;;;10.73;;
6209;SDS011;3138;52.550;13.148;2022-09-12T06:18:08;14.33;;;10.57;;
6209;SDS011;3138;52.550;13.148;2022-09-12T06:20:35;14.17;;;11.57;;
6209;SDS011;3138;52.550;13.148;2022-09-12T06:23:02;15.70;;;11.43;;
6209;SDS011;3138;52.550;13.148;2022-09-12T06:25:29;16.53;;;11.53;;
6209;SDS011;3138;52.550;13.148;2022-09-12T06:27:58;24.30;;;10.53;;
6209;SDS011;3138;52.550;13.148;2022-09-12T06:30:25;11.10;;;8.47;;
6209;SDS011;3138;52.550;13.148;2022-09-12T06:32:52;12.07;;;9.60;;
6209;SDS011;3138;52.550;13.148;2022-09-12T06:35:20;25.07;;;10.43;;
6209;SDS011;3138;52.550;13.148;2022-09-12T06:37:47;10.47;;;9.30;;
6209;SDS011;3138;52.550;13.148;2022-09-12T06:40:14;13.00;;;10.70;;
6209;SDS011;3138;52.550;13.148;2022-09-12T06:42:41;10.83;;;9.83;;
6209;SDS011;3138;52.550;13.148;2022-09-12T06:45:09;20.33;;;11.07;;
6209;SDS011;3138;52.550;13.148;2022-09-12T06:47:36;10.70;;;9.70;;
6209;SDS011;3138;52.550;13.148;2022-09-12T06:50:03;13.90;;;10.40;;
6209;SDS011;3138;52.550;13.148;2022-09-12T06:52:30;14.63;;;10.23;;
6209;SDS011;3138;52.550;13.148;2022-09-12T06:54:57;11.80;;;10.27;;
6209;SDS011;3138;52.550;13.148;2022-09-12T06:57:24;15.10;;;10.80;;
6209;SDS011;3138;52.550;13.148;2022-09-12T06:59:54;13.13;;;10.80;;
6209;SDS011;3138;52.550;13.148;2022-09-12T07:02:22;12.73;;;10.30;;
6209;SDS011;3138;52.550;13.148;2022-09-12T07:04:49;11.63;;;10.37;;
6209;SDS011;3138;52.550;13.148;2022-09-12T07:07:16;13.93;;;10.37;;
6209;SDS011;3138;52.550;13.148;2022-09-12T07:09:43;10.83;;;9.73;;
6209;SDS011;3138;52.550;13.148;2022-09-12T07:12:10;20.27;;;10.20;;
6209;SDS011;3138;52.550;13.148;2022-09-12T07:14:36;12.63;;;11.27;;
6209;SDS011;3138;52.550;13.148;2022-09-12T07:17:03;13.20;;;9.70;;
6209;SDS011;3138;52.550;13.148;2022-09-12T07:19:32;14.80;;;10.30;;
6209;SDS011;3138;52.550;13.148;2022-09-12T07:21:59;10.20;;;9.27;;
6209;SDS011;3138;52.550;13.148;2022-09-12T07:24:26;11.23;;;9.20;;
6209;SDS011;3138;52.550;13.148;2022-09-12T07:26:53;10.83;;;9.63;;
6209;SDS011;3138;52.550;13.148;2022-09-12T07:29:20;8.90;;;7.40;;
6209;SDS011;3138;52.550;13.148;2022-09-12T07:31:46;10.20;;;9.23;;
6209;SDS011;3138;52.550;13.148;2022-09-12T07:34:13;12.80;;;8.43;;
6209;SDS011;3138;52.550;13.148;2022-09-12T07:36:42;9.90;;;9.00;;
6209;SDS011;3138;52.550;13.148;2022-09-12T07:39:09;9.43;;;7.17;;
6209;SDS011;3138;52.550;13.148;2022-09-12T07:41:36;8.20;;;6.97;;
6209;SDS011;3138;52.550;13.148;2022-09-12T07:44:03;10.33;;;7.00;;
6209;SDS011;3138;52.550;13.148;2022-09-12T07:46:30;9.17;;;6.80;;
6209;SDS011;3138;52.550;13.148;2022-09-12T07:48:59;6.80;;;5.47;;
6209;SDS011;3138;52.550;13.148;2022-09-12T07:51:26;5.97;;;5.37;;
6209;SDS011;3138;52.550;13.148;2022-09-12T07:53:55;6.77;;;5.90;;
6209;SDS011;3138;52.550;13.148;2022-09-12T07:56:23;6.77;;;4.80;;
6209;SDS011;3138;52.550;13.148;2022-09-12T07:58:51;4.80;;;4.40;;
6209;SDS011;3138;52.550;13.148;2022-09-12T08:01:18;3.37;;;3.03;;
6209;SDS011;3138;52.550;13.148;2022-09-12T08:03:48;7.30;;;3.73;;
6209;SDS011;3138;52.550;13.148;2022-09-12T08:06:18;5.80;;;3.93;;
6209;SDS011;3138;52.550;13.148;2022-09-12T08:08:48;13.93;;;4.43;;
6209;SDS011;3138;52.550;13.148;2022-09-12T08:11:17;5.33;;;3.30;;
6209;SDS011;3138;52.550;13.148;2022-09-12T08:13:46;6.63;;;3.50;;
6209;SDS011;3138;52.550;13.148;2022-09-12T08:16:14;3.87;;;3.13;;
6209;SDS011;3138;52.550;13.148;2022-09-12T08:18:42;6.43;;;3.33;;
6209;SDS011;3138;52.550;13.148;2022-09-12T08:21:11;2.80;;;2.60;;
6209;SDS011;3138;52.550;13.148;2022-09-12T08:23:39;2.20;;;2.10;;
6209;SDS011;3138;52.550;13.148;2022-09-12T08:26:06;2.00;;;1.90;;
6209;SDS011;3138;52.550;13.148;2022-09-12T08:28:34;6.40;;;3.03;;
6209;SDS011;3138;52.550;13.148;2022-09-12T08:31:02;3.47;;;2.13;;
6209;SDS011;3138;52.550;13.148;2022-09-12T08:33:30;2.00;;;1.90;;
6209;SDS011;3138;52.550;13.148;2022-09-12T08:36:04;2.67;;;1.83;;
6209;SDS011;3138;52.550;13.148;2022-09-12T08:38:32;1.87;;;1.67;;
6209;SDS011;3138;52.550;13.148;2022-09-12T08:41:00;1.57;;;1.47;;
6209;SDS011;3138;52.550;13.148;2022-09-12T08:43:37;1.80;;;1.70;;
6209;SDS011;3138;52.550;13.148;2022-09-12T08:46:15;3.10;;;1.40;;
6209;SDS011;3138;52.550;13.148;2022-09-12T08:48:47;1.63;;;1.50;;
6209;SDS011;3138;52.550;13.148;2022-09-12T08:51:15;1.37;;;0.73;;
6209;SDS011;3138;52.550;13.148;2022-09-12T08:53:44;1.27;;;1.10;;
6209;SDS011;3138;52.550;13.148;2022-09-12T08:56:13;4.33;;;1.20;;
6209;SDS011;3138;52.550;13.148;2022-09-12T08:58:42;1.37;;;1.27;;
6209;SDS011;3138;52.550;13.148;2022-09-12T09:01:12;1.07;;;1.00;;
6209;SDS011;3138;52.550;13.148;2022-09-12T09:04:03;2.53;;;1.13;;
6209;SDS011;3138;52.550;13.148;2022-09-12T09:06:51;1.50;;;1.00;;
6209;SDS011;3138;52.550;13.148;2022-09-12T09:09:32;1.40;;;1.30;;
6209;SDS011;3138;52.550;13.148;2022-09-12T09:12:11;2.27;;;1.13;;
6209;SDS011;3138;52.550;13.148;2022-09-12T09:14:54;2.20;;;1.57;;
6209;SDS011;3138;52.550;13.148;2022-09-12T09:17:39;1.00;;;1.00;;
6209;SDS011;3138;52.550;13.148;2022-09-12T09:20:12;15.40;;;1.30;;
6209;SDS011;3138;52.550;13.148;2022-09-12T09:22:46;1.57;;;1.57;;
6209;SDS011;3138;52.550;13.148;2022-09-12T09:25:18;1.90;;;1.17;;
6209;SDS011;3138;52.550;13.148;2022-09-12T09:27:48;1.13;;;1.13;;
6209;SDS011;3138;52.550;13.148;2022-09-12T09:30:22;2.27;;;0.80;;
6209;SDS011;3138;52.550;13.148;2022-09-12T09:32:50;2.47;;;1.30;;
6209;SDS011;3138;52.550;13.148;2022-09-12T09:35:21;1.10;;;1.00;;
6209;SDS011;3138;52.550;13.148;2022-09-12T09:37:59;5.93;;;1.47;;
6209;SDS011;3138;52.550;13.148;2022-09-12T09:40:30;1.00;;;0.90;;
6209;SDS011;3138;52.550;13.148;2022-09-12T09:43:03;4.10;;;1.43;;
6209;SDS011;3138;52.550;13.148;2022-09-12T09:45:38;2.10;;;1.50;;
6209;SDS011;3138;52.550;13.148;2022-09-12T09:48:11;3.23;;;1.20;;
6209;SDS011;3138;52.550;13.148;2022-09-12T09:50:41;5.03;;;1.50;;
6209;SDS011;3138;52.550;13.148;2022-09-12T09:53:10;2.37;;;1.50;;
6209;SDS011;3138;52.550;13.148;2022-09-12T09:55:47;1.70;;;1.10;;
6209;SDS011;3138;52.550;13.148;2022-09-12T09:58:26;1.70;;;1.47;;
6209;SDS011;3138;52.550;13.148;2022-09-12T10:00:58;2.10;;;1.40;;
6209;SDS011;3138;52.550;13.148;2022-09-12T10:03:29;2.13;;;1.20;;
6209;SDS011;3138;52.550;13.148;2022-09-12T10:05:58;1.70;;;1.60;;
6209;SDS011;3138;52.550;13.148;2022-09-12T10:08:27;1.87;;;1.30;;
6209;SDS011;3138;52.550;13.148;2022-09-12T10:10:56;4.70;;;1.70;;
6209;SDS011;3138;52.550;13.148;2022-09-12T10:13:33;2.30;;;0.83;;
6209;SDS011;3138;52.550;13.148;2022-09-12T10:16:15;1.40;;;1.30;;
6209;SDS011;3138;52.550;13.148;2022-09-12T10:18:44;1.27;;;1.13;;
6209;SDS011;3138;52.550;13.148;2022-09-12T10:21:15;1.30;;;1.30;;
6209;SDS011;3138;52.550;13.148;2022-09-12T10:23:49;2.10;;;1.43;;
6209;SDS011;3138;52.550;13.148;2022-09-12T10:26:18;5.00;;;1.20;;
6209;SDS011;3138;52.550;13.148;2022-09-12T10:28:48;2.93;;;1.33;;
6209;SDS011;3138;52.550;13.148;2022-09-12T10:31:23;1.57;;;1.47;;
6209;SDS011;3138;52.550;13.148;2022-09-12T10:33:53;1.47;;;1.13;;
6209;SDS011;3138;52.550;13.148;2022-09-12T10:36:22;1.60;;;1.50;;
6209;SDS011;3138;52.550;13.148;2022-09-12T10:38:50;1.33;;;1.03;;
6209;SDS011;3138;52.550;13.148;2022-09-12T10:41:20;1.90;;;1.20;;
6209;SDS011;3138;52.550;13.148;2022-09-12T10:43:47;4.60;;;0.93;;
6209;SDS011;3138;52.550;13.148;2022-09-12T10:46:28;0.97;;;0.93;;
6209;SDS011;3138;52.550;13.148;2022-09-12T10:49:12;2.07;;;1.33;;
6209;SDS011;3138;52.550;13.148;2022-09-12T10:51:56;2.87;;;1.10;;
6209;SDS011;3138;52.550;13.148;2022-09-12T10:54:41;1.73;;;1.07;;
6209;SDS011;3138;52.550;13.148;2022-09-12T10:57:16;3.50;;;1.30;;
6209;SDS011;3138;52.550;13.148;2022-09-12T10:59:58;3.30;;;1.60;;
6209;SDS011;3138;52.550;13.148;2022-09-12T11:02:38;1.47;;;1.07;;
6209;SDS011;3138;52.550;13.148;2022-09-12T11:05:15;1.40;;;1.20;;
6209;SDS011;3138;52.550;13.148;2022-09-12T11:07:50;1.60;;;1.23;;
6209;SDS011;3138;52.550;13.148;2022-09-12T11:10:26;1.30;;;1.20;;
6209;SDS011;3138;52.550;13.148;2022-09-12T11:13:01;1.10;;;1.00;;
6209;SDS011;3138;52.550;13.148;2022-09-12T11:15:43;0.90;;;0.90;;
6209;SDS011;3138;52.550;13.148;2022-09-12T11:18:28;1.53;;;1.27;;
6209;SDS011;3138;52.550;13.148;2022-09-12T11:21:10;1.20;;;1.10;;
6209;SDS011;3138;52.550;13.148;2022-09-12T11:23:52;2.80;;;1.23;;
6209;SDS011;3138;52.550;13.148;2022-09-12T11:26:38;1.97;;;1.37;;
6209;SDS011;3138;52.550;13.148;2022-09-12T11:29:14;1.00;;;1.00;;
6209;SDS011;3138;52.550;13.148;2022-09-12T11:31:59;0.83;;;0.83;;
6209;SDS011;3138;52.550;13.148;2022-09-12T11:34:39;3.60;;;1.47;;
6209;SDS011;3138;52.550;13.148;2022-09-12T11:37:25;1.63;;;1.13;;
6209;SDS011;3138;52.550;13.148;2022-09-12T11:40:12;1.27;;;1.00;;
6209;SDS011;3138;52.550;13.148;2022-09-12T11:42:49;2.20;;;1.13;;
6209;SDS011;3138;52.550;13.148;2022-09-12T11:45:21;2.70;;;1.20;;
6209;SDS011;3138;52.550;13.148;2022-09-12T11:47:52;6.10;;;1.20;;
6209;SDS011;3138;52.550;13.148;2022-09-12T11:50:23;4.80;;;1.40;;
6209;SDS011;3138;52.550;13.148;2022-09-12T11:52:53;3.60;;;1.40;;
6209;SDS011;3138;52.550;13.148;2022-09-12T11:55:24;1.30;;;1.20;;
6209;SDS011;3138;52.550;13.148;2022-09-12T11:57:54;2.40;;;1.17;;
6209;SDS011;3138;52.550;13.148;2022-09-12T12:00:23;4.57;;;1.17;;
6209;SDS011;3138;52.550;13.148;2022-09-12T12:02:55;1.33;;;1.10;;
6209;SDS011;3138;52.550;13.148;2022-09-12T12:05:30;6.60;;;1.00;;
6209;SDS011;3138;52.550;13.148;2022-09-12T12:08:04;1.63;;;1.20;;
6209;SDS011;3138;52.550;13.148;2022-09-12T12:10:33;1.60;;;0.93;;
6209;SDS011;3138;52.550;13.148;2022-09-12T12:13:03;5.33;;;0.90;;
6209;SDS011;3138;52.550;13.148;2022-09-12T12:15:33;0.90;;;0.87;;
6209;SDS011;3138;52.550;13.148;2022-09-12T12:18:02;2.07;;;0.90;;
6209;SDS011;3138;52.550;13.148;2022-09-12T12:20:33;2.10;;;0.97;;
6209;SDS011;3138;52.550;13.148;2022-09-12T12:23:01;1.77;;;1.20;;
6209;SDS011;3138;52.550;13.148;2022-09-12T12:25:39;2.50;;;1.10;;
6209;SDS011;3138;52.550;13.148;2022-09-12T12:28:27;2.57;;;1.30;;
6209;SDS011;3138;52.550;13.148;2022-09-12T12:31:25;1.40;;;1.30;;
6209;SDS011;3138;52.550;13.148;2022-09-12T12:33:53;1.67;;;1.57;;
6209;SDS011;3138;52.550;13.148;2022-09-12T12:36:34;2.53;;;1.20;;
6209;SDS011;3138;52.550;13.148;2022-09-12T12:42:03;2.70;;;1.60;;
6209;SDS011;3138;52.550;13.148;2022-09-12T12:44:46;1.50;;;1.40;;
6209;SDS011;3138;52.550;13.148;2022-09-12T12:47:15;1.20;;;1.10;;
6209;SDS011;3138;52.550;13.148;2022-09-12T12:49:48;1.47;;;1.30;;
6209;SDS011;3138;52.550;13.148;2022-09-12T12:52:18;2.60;;;1.03;;
6209;SDS011;3138;52.550;13.148;2022-09-12T12:54:49;1.90;;;0.90;;
6209;SDS011;3138;52.550;13.148;2022-09-12T13:00:26;1.20;;;1.10;;
6209;SDS011;3138;52.550;13.148;2022-09-12T13:02:56;1.23;;;0.70;;
6209;SDS011;3138;52.550;13.148;2022-09-12T13:05:26;1.93;;;1.13;;
6209;SDS011;3138;52.550;13.148;2022-09-12T13:07:57;4.00;;;0.93;;
6209;SDS011;3138;52.550;13.148;2022-09-12T13:10:29;5.90;;;0.80;;
6209;SDS011;3138;52.550;13.148;2022-09-12T13:12:57;1.13;;;1.00;;
6209;SDS011;3138;52.550;13.148;2022-09-12T13:15:48;1.40;;;1.10;;
6209;SDS011;3138;52.550;13.148;2022-09-12T13:18:18;1.50;;;1.10;;
6209;SDS011;3138;52.550;13.148;2022-09-12T13:20:51;0.63;;;0.63;;
6209;SDS011;3138;52.550;13.148;2022-09-12T13:23:25;1.13;;;1.13;;
6209;SDS011;3138;52.550;13.148;2022-09-12T13:25:53;1.03;;;1.03;;
6209;SDS011;3138;52.550;13.148;2022-09-12T13:28:20;0.80;;;0.70;;
6209;SDS011;3138;52.550;13.148;2022-09-12T13:30:53;2.50;;;0.77;;
6209;SDS011;3138;52.550;13.148;2022-09-12T13:33:28;2.30;;;1.23;;
6209;SDS011;3138;52.550;13.148;2022-09-12T13:39:16;1.00;;;1.00;;
6209;SDS011;3138;52.550;13.148;2022-09-12T13:41:50;3.07;;;1.30;;
6209;SDS011;3138;52.550;13.148;2022-09-12T13:44:36;1.13;;;1.00;;
6209;SDS011;3138;52.550;13.148;2022-09-12T13:47:07;1.30;;;1.30;;
6209;SDS011;3138;52.550;13.148;2022-09-12T13:49:41;2.27;;;0.93;;
6209;SDS011;3138;52.550;13.148;2022-09-12T13:52:13;1.60;;;1.20;;
6209;SDS011;3138;52.550;13.148;2022-09-12T13:54:44;2.20;;;1.50;;
6209;SDS011;3138;52.550;13.148;2022-09-12T13:57:31;3.27;;;1.40;;
6209;SDS011;3138;52.550;13.148;2022-09-12T14:00:03;1.90;;;1.33;;
6209;SDS011;3138;52.550;13.148;2022-09-12T14:02:33;0.97;;;0.97;;
6209;SDS011;3138;52.550;13.148;2022-09-12T14:05:00;1.10;;;1.07;;
6209;SDS011;3138;52.550;13.148;2022-09-12T14:07:39;1.33;;;1.10;;
6209;SDS011;3138;52.550;13.148;2022-09-12T14:10:20;1.43;;;1.20;;
6209;SDS011;3138;52.550;13.148;2022-09-12T14:12:52;2.20;;;1.27;;
6209;SDS011;3138;52.550;13.148;2022-09-12T14:15:21;1.07;;;1.07;;
6209;SDS011;3138;52.550;13.148;2022-09-12T14:17:51;2.07;;;1.17;;
6209;SDS011;3138;52.550;13.148;2022-09-12T14:20:20;1.20;;;1.10;;
6209;SDS011;3138;52.550;13.148;2022-09-12T14:22:47;1.40;;;1.40;;
6209;SDS011;3138;52.550;13.148;2022-09-12T14:25:15;2.00;;;1.40;;
6209;SDS011;3138;52.550;13.148;2022-09-12T14:27:46;8.00;;;1.60;;
6209;SDS011;3138;52.550;13.148;2022-09-12T14:30:20;1.60;;;1.10;;
6209;SDS011;3138;52.550;13.148;2022-09-12T14:33:02;2.30;;;1.30;;
6209;SDS011;3138;52.550;13.148;2022-09-12T14:35:30;1.83;;;1.10;;
6209;SDS011;3138;52.550;13.148;2022-09-12T14:38:03;0.90;;;0.90;;
6209;SDS011;3138;52.550;13.148;2022-09-12T14:40:40;5.97;;;1.20;;
6209;SDS011;3138;52.550;13.148;2022-09-12T14:43:15;4.50;;;1.33;;
6209;SDS011;3138;52.550;13.148;2022-09-12T14:45:51;4.00;;;1.13;;
6209;SDS011;3138;52.550;13.148;2022-09-12T14:48:19;3.03;;;1.07;;
6209;SDS011;3138;52.550;13.148;2022-09-12T14:50:47;3.07;;;0.90;;
6209;SDS011;3138;52.550;13.148;2022-09-12T14:53:23;4.30;;;1.20;;
6209;SDS011;3138;52.550;13.148;2022-09-12T14:55:56;1.60;;;1.50;;
6209;SDS011;3138;52.550;13.148;2022-09-12T14:58:25;1.10;;;1.10;;
6209;SDS011;3138;52.550;13.148;2022-09-12T15:00:54;1.40;;;1.20;;
6209;SDS011;3138;52.550;13.148;2022-09-12T15:03:23;1.07;;;1.00;;
6209;SDS011;3138;52.550;13.148;2022-09-12T15:05:52;1.33;;;1.20;;
6209;SDS011;3138;52.550;13.148;2022-09-12T15:08:19;1.63;;;1.30;;
6209;SDS011;3138;52.550;13.148;2022-09-12T15:10:46;4.63;;;1.40;;
6209;SDS011;3138;52.550;13.148;2022-09-12T15:13:21;4.50;;;1.10;;
6209;SDS011;3138;52.550;13.148;2022-09-12T15:15:50;0.90;;;0.90;;
6209;SDS011;3138;52.550;13.148;2022-09-12T15:18:20;1.40;;;1.30;;
6209;SDS011;3138;52.550;13.148;2022-09-12T15:20:48;6.00;;;1.00;;
6209;SDS011;3138;52.550;13.148;2022-09-12T15:23:19;3.83;;;1.20;;
6209;SDS011;3138;52.550;13.148;2022-09-12T15:25:52;2.90;;;1.30;;
6209;SDS011;3138;52.550;13.148;2022-09-12T15:28:19;3.93;;;1.30;;
6209;SDS011;3138;52.550;13.148;2022-09-12T15:30:49;3.90;;;0.83;;
6209;SDS011;3138;52.550;13.148;2022-09-12T15:33:18;2.07;;;1.33;;
6209;SDS011;3138;52.550;13.148;2022-09-12T15:35:46;1.10;;;1.10;;